createdAt,value
2019-06-07T00:01:47.959Z,11.83
2019-06-07T00:04:20.797Z,11.86
2019-06-07T00:06:48.378Z,11.84
2019-06-07T00:09:22.096Z,11.96
2019-06-07T00:11:48.907Z,11.83
2019-06-07T00:14:20.844Z,11.80
2019-06-07T00:16:49.219Z,11.84
2019-06-07T00:19:19.088Z,11.85
2019-06-07T00:24:21.853Z,11.87
2019-06-07T00:26:58.319Z,11.87
2019-06-07T00:29:22.235Z,11.89
2019-06-07T00:31:51.867Z,11.77
2019-06-07T00:34:23.166Z,11.69
2019-06-07T00:36:52.353Z,11.76
2019-06-07T00:39:25.355Z,11.74
2019-06-07T00:41:52.617Z,11.81
2019-06-07T00:44:23.468Z,11.74
2019-06-07T00:46:53.731Z,11.76
2019-06-07T00:49:40.050Z,11.77
2019-06-07T00:51:54.254Z,11.75
2019-06-07T00:54:24.995Z,11.59
2019-06-07T00:56:55.498Z,11.59
2019-06-07T00:59:29.609Z,11.53
2019-06-07T01:01:57.414Z,11.43
2019-06-07T01:04:27.259Z,11.58
2019-06-07T01:06:56.730Z,11.59
2019-06-07T01:09:26.374Z,11.46
2019-06-07T01:11:59.222Z,11.39
2019-06-07T01:14:33.486Z,11.31
2019-06-07T01:17:39.179Z,11.30
2019-06-07T01:19:56.293Z,11.34
2019-06-07T01:22:29.076Z,11.26
2019-06-07T01:25:02.175Z,11.23
2019-06-07T01:27:31.595Z,11.15
2019-06-07T01:30:01.087Z,11.26
2019-06-07T01:32:31.700Z,11.25
2019-06-07T01:41:04.826Z,11.23
2019-06-07T01:43:38.843Z,11.21
2019-06-07T01:46:09.604Z,11.08
2019-06-07T01:48:49.309Z,11.11
2019-06-07T01:51:15.921Z,11.16
2019-06-07T01:53:46.806Z,11.24
2019-06-07T01:56:18.584Z,11.15
2019-06-07T01:58:47.847Z,11.11
2019-06-07T02:01:19.186Z,11.11
2019-06-07T02:09:28.423Z,11.12
2019-06-07T02:11:56.806Z,11.18
2019-06-07T02:14:29.822Z,11.09
2019-06-07T02:16:57.466Z,11.06
2019-06-07T02:19:37.569Z,11.11
2019-06-07T02:22:07.013Z,11.07
2019-06-07T02:24:36.748Z,11.04
2019-06-07T02:27:06.222Z,11.07
2019-06-07T02:29:36.072Z,11.07
2019-06-07T02:32:05.511Z,11.15
2019-06-07T02:34:38.655Z,11.08
2019-06-07T02:51:24.437Z,10.84
2019-06-07T02:53:53.755Z,10.88
2019-06-07T03:00:05.523Z,10.73
2019-06-07T03:02:14.831Z,10.59
2019-06-07T03:04:45.082Z,10.50
2019-06-07T03:07:15.090Z,10.48
2019-06-07T03:09:44.771Z,10.51
2019-06-07T03:12:16.207Z,10.33
2019-06-07T03:14:45.592Z,10.19
2019-06-07T03:17:30.451Z,10.27
2019-06-07T03:20:03.033Z,10.12
2019-06-07T03:22:39.909Z,10.23
2019-06-07T03:25:07.611Z,10.23
2019-06-07T03:27:48.601Z,10.25
2019-06-07T03:30:35.860Z,10.23
2019-06-07T03:32:46.832Z,10.09
2019-06-07T03:35:10.742Z,10.14
2019-06-07T03:37:42.669Z,10.27
2019-06-07T03:40:10.922Z,10.29
2019-06-07T03:42:40.284Z,10.27
2019-06-07T03:45:09.475Z,10.25
2019-06-07T03:47:42.075Z,10.30
2019-06-07T03:50:09.753Z,10.33
2019-06-07T03:52:41.268Z,10.19
2019-06-07T03:55:10.007Z,10.30
2019-06-07T03:58:29.364Z,10.44
2019-06-07T04:00:10.536Z,10.50
2019-06-07T04:02:41.990Z,10.48
2019-06-07T04:05:10.976Z,10.54
2019-06-07T04:07:44.337Z,10.67
2019-06-07T04:10:11.710Z,10.75
2019-06-07T04:12:43.962Z,10.84
2019-06-07T04:15:13.247Z,10.87
2019-06-07T04:18:00.767Z,10.96
2019-06-07T04:20:13.605Z,11.07
2019-06-07T04:22:42.975Z,11.17
2019-06-07T04:25:13.128Z,11.24
2019-06-07T04:27:42.374Z,11.28
2019-06-07T04:30:11.909Z,11.39
2019-06-07T04:32:44.815Z,11.37
2019-06-07T04:35:12.258Z,11.37
2019-06-07T04:37:42.768Z,11.34
2019-06-07T04:40:12.384Z,11.24
2019-06-07T04:42:45.364Z,11.46
2019-06-07T04:45:33.065Z,11.67
2019-06-07T04:47:46.520Z,11.73
2019-06-07T04:50:15.790Z,11.58
2019-06-07T04:52:45.826Z,11.60
2019-06-07T04:55:15.238Z,12.04
2019-06-07T04:57:44.478Z,12.24
2019-06-07T05:00:46.673Z,12.40
2019-06-07T05:02:45.350Z,12.57
2019-06-07T05:05:15.076Z,12.71
2019-06-07T05:07:46.208Z,12.90
2019-06-07T05:10:15.809Z,13.30
2019-06-07T05:12:45.007Z,13.40
2019-06-07T05:15:14.713Z,13.60
2019-06-07T05:17:45.208Z,13.73
2019-06-07T05:20:16.050Z,13.89
2019-06-07T05:22:45.711Z,13.93
2019-06-07T05:25:14.957Z,14.01
2019-06-07T05:27:46.900Z,13.94
2019-06-07T05:30:57.811Z,13.94
2019-06-07T05:32:49.420Z,13.92
2019-06-07T05:35:19.091Z,13.85
2019-06-07T05:37:48.295Z,13.91
2019-06-07T05:40:21.642Z,14.02
2019-06-07T05:42:50.962Z,14.19
2019-06-07T05:45:24.604Z,14.24
2019-06-07T05:47:53.834Z,14.23
2019-06-07T05:50:39.031Z,14.27
2019-06-07T05:52:54.381Z,14.43
2019-06-07T05:55:35.328Z,14.54
2019-06-07T05:58:04.671Z,14.59
2019-06-07T06:00:36.357Z,14.63
2019-06-07T06:03:06.273Z,14.75
2019-06-07T06:05:41.629Z,14.61
2019-06-07T06:08:06.962Z,14.71
2019-06-07T06:10:37.625Z,14.84
2019-06-07T06:13:07.532Z,14.84
2019-06-07T06:15:46.385Z,14.81
2019-06-07T06:18:08.865Z,15.00
2019-06-07T06:21:00.965Z,14.93
2019-06-07T06:23:09.152Z,15.00
2019-06-07T06:25:41.593Z,15.09
2019-06-07T06:28:12.039Z,15.23
2019-06-07T06:30:41.214Z,15.12
2019-06-07T06:33:30.746Z,14.94
2019-06-07T06:35:42.574Z,14.95
2019-06-07T06:38:13.318Z,15.14
2019-06-07T06:40:46.528Z,15.40
2019-06-07T06:43:13.871Z,15.69
2019-06-07T06:45:46.879Z,15.93
2019-06-07T06:48:15.565Z,16.24
2019-06-07T06:50:49.007Z,16.23
2019-06-07T06:53:15.814Z,16.13
2019-06-07T06:55:48.483Z,15.87
2019-06-07T06:58:16.064Z,15.80
2019-06-07T07:00:56.874Z,15.86
2019-06-07T07:03:54.292Z,15.88
2019-06-07T07:05:54.602Z,15.97
2019-06-07T07:08:23.708Z,16.03
2019-06-07T07:10:54.916Z,16.22
2019-06-07T07:13:23.952Z,16.28
2019-06-07T07:15:57.831Z,16.08
2019-06-07T07:18:24.157Z,16.06
2019-06-07T07:20:56.857Z,16.38
2019-06-07T07:23:24.419Z,16.67
2019-06-07T07:25:59.507Z,16.75
2019-06-07T07:28:24.728Z,16.77
2019-06-07T07:30:56.976Z,16.72
2019-06-07T07:33:26.095Z,16.94
2019-06-07T07:36:15.634Z,17.01
2019-06-07T07:38:26.413Z,17.19
2019-06-07T07:41:06.729Z,17.19
2019-06-07T07:43:26.632Z,17.21
2019-06-07T07:46:02.187Z,17.28
2019-06-07T07:48:27.058Z,17.39
2019-06-07T07:51:00.586Z,17.48
2019-06-07T07:53:45.393Z,17.60
2019-06-07T07:56:00.047Z,17.74
2019-06-07T07:58:29.739Z,17.67
2019-06-07T08:01:09.796Z,17.75
2019-06-07T08:03:30.669Z,17.66
2019-06-07T08:06:00.330Z,17.75
2019-06-07T08:08:29.697Z,17.84
2019-06-07T08:11:01.790Z,17.97
2019-06-07T08:13:29.942Z,18.05
2019-06-07T08:16:05.039Z,18.01
2019-06-07T08:18:30.112Z,18.09
2019-06-07T08:21:15.001Z,18.08
2019-06-07T08:23:30.289Z,18.22
2019-06-07T08:26:01.046Z,18.29
2019-06-07T08:28:30.942Z,18.27
2019-06-07T08:31:06.295Z,18.57
2019-06-07T08:33:31.210Z,18.83
2019-06-07T08:36:13.925Z,18.72
2019-06-07T08:38:47.114Z,18.87
2019-06-07T08:41:11.465Z,18.97
2019-06-07T08:43:33.731Z,18.93
2019-06-07T08:46:07.461Z,18.92
2019-06-07T08:48:33.937Z,19.00
2019-06-07T08:51:08.299Z,19.17
2019-06-07T08:53:34.589Z,19.17
2019-06-07T08:56:09.837Z,19.35
2019-06-07T08:58:34.775Z,19.21
2019-06-07T09:01:08.311Z,19.39
2019-06-07T09:03:35.180Z,19.24
2019-06-07T09:06:16.119Z,19.42
2019-06-07T09:08:35.519Z,19.47
2019-06-07T09:11:10.607Z,19.52
2019-06-07T09:13:36.158Z,19.61
2019-06-07T09:16:08.636Z,19.77
2019-06-07T09:18:42.691Z,19.77
2019-06-07T09:21:09.613Z,19.67
2019-06-07T09:23:38.335Z,19.59
2019-06-07T09:26:16.581Z,19.53
2019-06-07T09:28:38.700Z,19.49
2019-06-07T09:31:10.533Z,19.51
2019-06-07T09:33:39.095Z,19.64
2019-06-07T09:36:12.535Z,19.73
2019-06-07T09:38:39.638Z,19.64
2019-06-07T09:41:47.527Z,19.72
2019-06-07T09:44:21.397Z,19.85
2019-06-07T09:46:42.885Z,19.92
2019-06-07T09:49:28.293Z,20.06
2019-06-07T09:51:46.453Z,20.18
2019-06-07T09:55:02.265Z,20.06
2019-06-07T09:56:47.299Z,20.30
2019-06-07T09:59:16.601Z,20.34
2019-06-07T10:01:47.739Z,20.39
2019-06-07T10:04:30.817Z,20.47
2019-06-07T10:06:49.551Z,20.61
2019-06-07T10:11:50.309Z,21.01
2019-06-07T10:14:20.849Z,20.96
2019-06-07T10:16:51.428Z,21.40
2019-06-07T10:19:21.586Z,21.60
2019-06-07T10:21:51.630Z,21.79
2019-06-07T10:24:21.361Z,21.63
2019-06-07T10:26:51.372Z,21.54
2019-06-07T10:29:20.685Z,21.47
2019-06-07T10:31:53.780Z,21.49
2019-06-07T10:34:24.889Z,21.53
2019-06-07T10:36:56.291Z,21.48
2019-06-07T10:39:27.051Z,21.58
2019-06-07T10:41:56.731Z,21.64
2019-06-07T10:44:26.128Z,21.75
2019-06-07T10:46:59.145Z,21.84
2019-06-07T10:49:27.458Z,22.00
2019-06-07T10:51:56.826Z,22.16
2019-06-07T10:54:30.523Z,22.27
2019-06-07T10:56:57.239Z,22.30
2019-06-07T10:59:26.582Z,22.31
2019-06-07T11:01:55.782Z,22.75
2019-06-07T11:04:25.387Z,23.27
2019-06-07T11:06:54.576Z,23.68
2019-06-07T11:09:23.824Z,23.86
2019-06-07T11:11:53.056Z,24.18
2019-06-07T11:14:22.284Z,24.19
2019-06-07T11:16:51.618Z,23.73
2019-06-07T11:19:21.174Z,23.97
2019-06-07T11:21:50.362Z,24.22
2019-06-07T11:24:24.417Z,23.92
2019-06-07T11:26:50.589Z,23.79
2019-06-07T11:29:20.101Z,23.83
2019-06-07T11:31:49.292Z,23.75
2019-06-07T11:34:18.910Z,23.95
2019-06-07T11:36:51.049Z,24.58
2019-06-07T11:39:19.472Z,24.90
2019-06-07T11:41:48.705Z,25.36
2019-06-07T11:44:17.917Z,25.60
2019-06-07T11:46:47.122Z,26.01
2019-06-07T11:49:20.417Z,25.89
2019-06-07T11:51:47.334Z,25.24
2019-06-07T11:54:20.106Z,25.55
2019-06-07T11:56:47.506Z,25.21
2019-06-07T11:59:17.476Z,25.38
2019-06-07T12:01:46.810Z,25.23
2019-06-07T12:04:33.850Z,25.62
2019-06-07T12:06:47.028Z,25.74
2019-06-07T12:09:16.863Z,25.49
2019-06-07T12:11:46.409Z,25.26
2019-06-07T12:14:23.811Z,25.16
2019-06-07T12:16:53.075Z,25.12
2019-06-07T12:19:22.345Z,25.13
2019-06-07T12:21:51.561Z,24.80
2019-06-07T12:24:21.199Z,25.22
2019-06-07T12:26:50.560Z,25.12
2019-06-07T12:29:21.071Z,25.34
2019-06-07T12:31:50.392Z,24.98
2019-06-07T12:34:20.008Z,25.44
2019-06-07T12:36:49.239Z,25.77
2019-06-07T12:39:18.540Z,26.00
2019-06-07T12:41:47.818Z,25.91
2019-06-07T12:44:18.520Z,25.41
2019-06-07T12:46:47.935Z,25.91
2019-06-07T12:49:17.190Z,25.84
2019-06-07T12:51:46.761Z,25.30
2019-06-07T12:54:15.977Z,24.72
2019-06-07T12:56:45.284Z,24.22
2019-06-07T12:59:15.879Z,24.23
2019-06-07T13:01:45.175Z,24.44
2019-06-07T13:04:14.465Z,24.62
2019-06-07T13:06:43.671Z,24.90
2019-06-07T13:09:12.858Z,25.98
2019-06-07T13:11:42.461Z,27.29
2019-06-07T13:14:12.034Z,28.37
2019-06-07T13:16:41.304Z,28.98
2019-06-07T13:19:10.570Z,28.74
2019-06-07T13:21:39.790Z,27.48
2019-06-07T13:24:08.990Z,26.03
2019-06-07T13:26:38.240Z,27.20
2019-06-07T13:29:07.463Z,29.06
2019-06-07T13:31:36.698Z,30.46
2019-06-07T13:34:05.965Z,31.36
2019-06-07T13:36:35.181Z,30.89
2019-06-07T13:39:05.133Z,30.01
2019-06-07T13:41:42.435Z,28.41
2019-06-07T13:44:05.323Z,27.53
2019-06-07T13:46:34.541Z,26.82
2019-06-07T13:49:03.765Z,26.38
2019-06-07T13:51:33.467Z,26.23
2019-06-07T13:54:03.228Z,26.78
2019-06-07T13:56:32.479Z,26.48
2019-06-07T13:59:01.675Z,26.64
2019-06-07T14:01:30.907Z,26.86
2019-06-07T14:04:00.403Z,27.46
2019-06-07T14:06:30.303Z,27.50
2019-06-07T14:08:59.662Z,26.80
2019-06-07T14:11:31.488Z,26.16
2019-06-07T14:13:59.829Z,26.60
2019-06-07T14:16:30.415Z,28.27
2019-06-07T14:18:59.692Z,28.91
2019-06-07T14:21:29.157Z,28.63
2019-06-07T14:23:58.405Z,27.34
2019-06-07T14:26:27.591Z,26.79
2019-06-07T14:28:57.188Z,26.51
2019-06-07T14:31:26.426Z,26.11
2019-06-07T14:33:55.767Z,25.70
2019-06-07T14:36:24.975Z,25.54
2019-06-07T14:38:54.287Z,25.17
2019-06-07T14:41:25.167Z,24.61
2019-06-07T14:43:54.681Z,24.11
2019-06-07T14:46:25.694Z,23.87
2019-06-07T14:48:55.057Z,23.44
2019-06-07T14:51:24.292Z,23.40
2019-06-07T14:53:53.749Z,23.13
2019-06-07T14:56:22.957Z,22.74
2019-06-07T14:58:52.676Z,22.37
2019-06-07T15:01:22.055Z,22.15
2019-06-07T15:03:52.870Z,22.01
2019-06-07T15:06:26.779Z,21.84
2019-06-07T15:08:59.764Z,21.65
2019-06-07T15:11:33.120Z,21.48
2019-06-07T15:14:02.822Z,21.20
2019-06-07T15:16:33.740Z,20.86
2019-06-07T15:19:03.716Z,20.34
2019-06-07T15:21:34.999Z,19.46
2019-06-07T15:24:04.925Z,18.35
2019-06-07T15:26:34.835Z,18.38
2019-06-07T15:29:05.256Z,18.80
2019-06-07T15:31:36.603Z,19.34
2019-06-07T15:34:05.732Z,19.35
2019-06-07T15:36:36.380Z,19.43
2019-06-07T15:39:08.679Z,21.59
2019-06-07T15:41:39.933Z,21.59
2019-06-07T15:44:09.645Z,21.77
2019-06-07T15:46:40.116Z,21.62
2019-06-07T15:49:12.701Z,21.65
2019-06-07T15:51:42.454Z,21.54
2019-06-07T15:54:12.239Z,21.71
2019-06-07T15:56:43.181Z,22.56
2019-06-07T15:59:19.146Z,22.52
2019-06-07T16:01:57.713Z,20.89
2019-06-07T16:04:37.681Z,20.10
2019-06-07T16:07:08.733Z,20.09
2019-06-07T16:09:42.707Z,19.21
2019-06-07T16:12:13.943Z,19.96
2019-06-07T16:14:43.935Z,20.07
2019-06-07T16:17:24.398Z,20.53
2019-06-07T16:20:02.426Z,20.53
2019-06-07T16:22:33.426Z,20.53
2019-06-07T16:25:02.836Z,19.78
2019-06-07T16:27:31.991Z,20.08
2019-06-07T16:30:08.796Z,19.40
2019-06-07T16:32:41.824Z,18.91
2019-06-07T16:35:25.931Z,18.32
2019-06-07T16:37:55.309Z,17.97
2019-06-07T16:40:25.909Z,17.73
2019-06-07T16:42:56.390Z,17.58
2019-06-07T16:45:25.613Z,17.46
2019-06-07T16:47:58.034Z,17.85
2019-06-07T16:50:27.298Z,17.76
2019-06-07T16:52:56.528Z,17.59
2019-06-07T16:55:26.434Z,17.36
2019-06-07T16:57:55.832Z,17.37
2019-06-07T17:00:25.450Z,17.43
2019-06-07T17:02:56.983Z,17.23
2019-06-07T17:05:26.264Z,17.13
2019-06-07T17:07:55.504Z,17.00
2019-06-07T17:10:25.052Z,16.96
2019-06-07T17:12:54.284Z,16.94
2019-06-07T17:15:23.648Z,17.01
2019-06-07T17:17:53.148Z,16.98
2019-06-07T17:20:22.804Z,16.97
2019-06-07T17:22:52.692Z,16.96
2019-06-07T17:25:22.285Z,16.85
2019-06-07T17:27:51.704Z,16.96
2019-06-07T17:30:21.041Z,16.96
2019-06-07T17:32:58.921Z,17.01
2019-06-07T17:35:21.757Z,17.00
2019-06-07T17:37:51.548Z,17.00
2019-06-07T17:40:22.010Z,16.95
2019-06-07T17:42:57.121Z,16.82
2019-06-07T17:45:26.420Z,16.65
2019-06-07T17:47:55.806Z,16.59
2019-06-07T17:50:25.023Z,16.59
2019-06-07T17:52:54.725Z,16.58
2019-06-07T17:55:23.965Z,16.75
2019-06-07T17:57:53.233Z,16.77
2019-06-07T18:00:28.464Z,16.85
2019-06-07T18:02:54.971Z,16.88
2019-06-07T18:05:24.322Z,16.92
2019-06-07T18:07:54.006Z,16.82
2019-06-07T18:10:50.053Z,16.81
2019-06-07T18:13:19.401Z,16.76
2019-06-07T18:15:53.878Z,16.71
2019-06-07T18:18:20.702Z,16.71
2019-06-07T18:20:51.505Z,16.75
2019-06-07T18:23:21.327Z,16.75
2019-06-07T18:25:50.652Z,16.79
2019-06-07T18:28:20.252Z,16.70
2019-06-07T18:30:52.736Z,16.74
2019-06-07T18:33:22.484Z,16.77
2019-06-07T18:35:55.300Z,16.84
2019-06-07T18:38:28.042Z,16.81
2019-06-07T18:40:59.497Z,16.78
2019-06-07T18:43:30.272Z,16.77
2019-06-07T18:46:01.759Z,16.80
2019-06-07T18:48:31.552Z,16.74
2019-06-07T18:51:01.174Z,16.72
2019-06-07T18:53:30.962Z,16.69
2019-06-07T18:56:01.090Z,16.64
2019-06-07T18:58:31.388Z,16.43
2019-06-07T19:01:01.250Z,16.45
2019-06-07T19:03:32.568Z,16.30
2019-06-07T19:06:02.220Z,16.22
2019-06-07T19:08:34.889Z,16.24
2019-06-07T19:11:04.866Z,16.16
2019-06-07T19:13:38.948Z,16.12
2019-06-07T19:16:08.747Z,16.16
2019-06-07T19:18:38.400Z,16.06
2019-06-07T19:21:09.100Z,16.09
2019-06-07T19:23:40.020Z,16.06
2019-06-07T19:26:09.558Z,16.06
2019-06-07T19:28:40.736Z,16.03
2019-06-07T19:31:10.417Z,16.02
2019-06-07T19:33:48.751Z,16.05
2019-06-07T19:36:12.134Z,16.05
2019-06-07T19:38:42.267Z,16.00
2019-06-07T19:41:19.156Z,16.02
2019-06-07T19:43:43.342Z,16.08
2019-06-07T19:46:12.877Z,16.02
2019-06-07T19:48:42.619Z,16.14
2019-06-07T19:51:12.330Z,16.05
2019-06-07T19:53:41.961Z,16.04
2019-06-07T19:56:11.989Z,16.03
2019-06-07T19:58:42.323Z,16.07
2019-06-07T20:01:12.144Z,16.01
2019-06-07T20:03:42.086Z,15.98
2019-06-07T20:06:11.711Z,16.00
2019-06-07T20:08:41.576Z,15.93
2019-06-07T20:11:11.206Z,15.94
2019-06-07T20:13:41.303Z,15.93
2019-06-07T20:16:10.811Z,15.93
2019-06-07T20:18:40.743Z,15.91
2019-06-07T20:21:10.584Z,15.87
2019-06-07T20:23:40.446Z,15.81
2019-06-07T20:26:11.020Z,15.76
2019-06-07T20:28:40.895Z,15.73
2019-06-07T20:31:10.401Z,15.77
2019-06-07T20:33:40.547Z,15.74
2019-06-07T20:36:10.990Z,15.64
2019-06-07T20:38:41.164Z,15.67
2019-06-07T20:41:10.795Z,15.55
2019-06-07T20:43:40.595Z,15.42
2019-06-07T20:46:21.486Z,15.44
2019-06-07T20:48:51.203Z,15.40
2019-06-07T20:51:20.492Z,15.35
2019-06-07T20:53:50.064Z,15.32
2019-06-07T20:56:19.400Z,15.34
2019-06-07T20:58:49.432Z,15.35
2019-06-07T21:01:18.986Z,15.39
2019-06-07T21:03:48.626Z,15.42
2019-06-07T21:06:18.450Z,15.38
2019-06-07T21:08:47.676Z,15.41
2019-06-07T21:11:17.325Z,15.39
2019-06-07T21:13:46.585Z,15.41
2019-06-07T21:16:17.101Z,15.35
2019-06-07T21:18:46.334Z,15.41
2019-06-07T21:21:15.570Z,15.49
2019-06-07T21:23:44.788Z,15.56
2019-06-07T21:26:16.568Z,15.47
2019-06-07T21:28:45.790Z,15.48
2019-06-07T21:31:15.051Z,15.56
2019-06-07T21:33:48.478Z,15.60
2019-06-07T21:36:17.807Z,15.50
2019-06-07T21:38:47.051Z,15.64
2019-06-07T21:41:16.359Z,15.70
2019-06-07T21:43:45.873Z,15.62
2019-06-07T21:46:20.594Z,15.64
2019-06-07T21:48:46.875Z,15.60
2019-06-07T21:51:16.407Z,15.58
2019-06-07T21:53:45.641Z,15.63
2019-06-07T21:56:14.917Z,15.71
2019-06-07T21:58:44.118Z,15.77
2019-06-07T22:01:20.301Z,15.75
2019-06-07T22:03:49.527Z,15.73
2019-06-07T22:06:20.326Z,15.74
2019-06-07T22:08:49.580Z,15.70
2019-06-07T22:11:18.843Z,15.66
2019-06-07T22:13:48.110Z,15.79
2019-06-07T22:16:28.464Z,15.91
2019-06-07T22:18:50.934Z,16.01
2019-06-07T22:21:20.141Z,16.00
2019-06-07T22:23:49.430Z,15.94
2019-06-07T22:26:18.626Z,15.86
2019-06-07T22:28:48.726Z,15.80
2019-06-07T22:31:19.283Z,15.81
2019-06-07T22:33:49.356Z,15.72
2019-06-07T22:36:20.291Z,15.64
2019-06-07T22:38:49.811Z,15.65
2019-06-07T22:41:19.102Z,15.60
2019-06-07T22:43:48.328Z,15.60
2019-06-07T22:46:17.522Z,15.64
2019-06-07T22:48:46.775Z,15.72
2019-06-07T22:51:16.478Z,15.72
2019-06-07T22:53:45.824Z,15.71
2019-06-07T22:56:50.836Z,15.74
2019-06-07T22:59:20.585Z,15.78
2019-06-07T23:01:50.227Z,15.77
2019-06-07T23:04:19.477Z,15.75
2019-06-07T23:06:48.669Z,15.70
2019-06-07T23:09:19.779Z,15.72
2019-06-07T23:11:49.071Z,15.72
2019-06-07T23:14:19.509Z,15.70
2019-06-07T23:16:55.283Z,15.61
2019-06-07T23:19:20.443Z,15.52
2019-06-07T23:21:49.770Z,15.44
2019-06-07T23:24:21.567Z,15.31
2019-06-07T23:26:50.783Z,15.19
2019-06-07T23:29:20.709Z,15.22
2019-06-07T23:31:50.036Z,15.18
2019-06-07T23:34:19.325Z,15.17
2019-06-07T23:36:48.559Z,15.20
2019-06-07T23:39:20.422Z,15.18
2019-06-07T23:41:48.723Z,15.21
2019-06-07T23:44:17.939Z,15.23
2019-06-07T23:46:47.316Z,15.12
2019-06-07T23:49:17.606Z,15.06
2019-06-07T23:51:46.916Z,15.16
2019-06-07T23:54:16.152Z,15.27
2019-06-07T23:56:45.350Z,15.28
2019-06-07T23:59:14.596Z,15.37
